Time;durP1;ratioP1;P1;durP2;ratioP2;P2;SDS_P1;SDS_P2;PMS_P1;PMS_P2;Temp;Humidity;BMP_temperature;BMP_pressure;BME280_temperature;BME280_humidity;BME280_pressure;Samples;Min_cycle;Max_cycle;Signal;HPM_P1;HPM_P2
2022/06/12 00:00:08;;;;;;;6.53;5.83;;;22.30;99.90;;;;;;5075412;28;20498;-69
2022/06/12 00:02:34;;;;;;;5.20;4.70;;;22.30;99.90;;;;;;5075117;28;20426;-68
2022/06/12 00:05:02;;;;;;;5.50;5.00;;;22.30;99.90;;;;;;5076561;28;20537;-70
2022/06/12 00:07:30;;;;;;;7.07;6.37;;;22.30;99.90;;;;;;5074951;28;20425;-69
2022/06/12 00:09:56;;;;;;;5.47;4.97;;;22.30;99.90;;;;;;5074898;28;20457;-69
2022/06/12 00:12:25;;;;;;;7.40;5.07;;;22.20;99.90;;;;;;5074974;28;20473;-70
2022/06/12 00:14:52;;;;;;;7.03;5.93;;;22.20;99.90;;;;;;5074826;28;20208;-69
2022/06/12 00:17:18;;;;;;;7.00;6.30;;;22.20;99.90;;;;;;5074905;28;20418;-69
2022/06/12 00:19:49;;;;;;;6.83;5.57;;;22.20;99.90;;;;;;5074718;28;20434;-69
2022/06/12 00:22:18;;;;;;;10.73;6.47;;;22.20;99.90;;;;;;5074685;28;20422;-68
2022/06/12 00:24:45;;;;;;;6.80;5.70;;;22.20;99.90;;;;;;5074647;28;20969;-69
2022/06/12 00:27:24;;;;;;;7.67;6.50;;;22.20;99.90;;;;;;5074384;28;20446;-69
2022/06/12 00:29:51;;;;;;;7.73;6.10;;;22.20;99.90;;;;;;5074226;28;20469;-68
2022/06/12 00:32:18;;;;;;;6.33;5.50;;;22.10;99.90;;;;;;5074475;28;20611;-69
2022/06/12 00:34:50;;;;;;;7.67;5.83;;;22.10;99.90;;;;;;5074408;28;20437;-69
2022/06/12 00:37:21;;;;;;;6.90;6.00;;;22.10;99.90;;;;;;5073922;28;20517;-69
2022/06/12 00:39:54;;;;;;;8.90;5.67;;;22.00;99.90;;;;;;5074257;28;20453;-69
2022/06/12 00:42:31;;;;;;;7.47;6.43;;;22.00;99.90;;;;;;5074254;28;20421;-69
2022/06/12 00:45:01;;;;;;;11.63;6.13;;;22.00;99.90;;;;;;5074589;28;21033;-69
2022/06/12 00:47:29;;;;;;;5.90;5.30;;;21.90;99.90;;;;;;5074688;28;20451;-69
2022/06/12 00:50:03;;;;;;;7.33;5.63;;;21.90;99.90;;;;;;5074090;28;20809;-68
2022/06/12 00:52:33;;;;;;;6.50;5.90;;;21.90;99.90;;;;;;5074213;28;20858;-69
2022/06/12 00:55:10;;;;;;;6.53;5.90;;;21.90;99.90;;;;;;5074139;28;20541;-68
2022/06/12 00:57:40;;;;;;;6.97;5.20;;;21.90;99.90;;;;;;5074231;28;20421;-69
2022/06/12 01:00:13;;;;;;;7.13;6.17;;;21.90;99.90;;;;;;5075460;28;20476;-69
2022/06/12 01:02:40;;;;;;;7.60;6.40;;;21.80;99.90;;;;;;5074131;28;20414;-69
2022/06/12 01:08:04;;;;;;;7.07;5.70;;;21.80;99.90;;;;;;5075446;28;20405;-69
2022/06/12 01:10:41;;;;;;;9.03;6.10;;;21.80;99.90;;;;;;5073525;28;20442;-69
2022/06/12 01:13:22;;;;;;;6.60;5.40;;;21.80;99.90;;;;;;5073586;28;20452;-69
2022/06/12 01:15:54;;;;;;;7.27;5.80;;;21.70;99.90;;;;;;5073618;28;20446;-68
2022/06/12 01:18:26;;;;;;;6.80;5.87;;;21.70;99.90;;;;;;5073852;28;20472;-69
2022/06/12 01:21:03;;;;;;;5.77;5.27;;;21.70;99.90;;;;;;5073402;28;20498;-69
2022/06/12 01:23:45;;;;;;;6.40;5.50;;;21.70;99.90;;;;;;5073499;28;20433;-69
2022/06/12 01:26:39;;;;;;;6.83;5.50;;;21.70;99.90;;;;;;5073721;28;20429;-68
2022/06/12 01:29:21;;;;;;;6.70;5.20;;;21.70;99.90;;;;;;5073065;28;20981;-68
2022/06/12 01:32:18;;;;;;;6.80;5.07;;;21.60;99.90;;;;;;5073281;28;20488;-70
2022/06/12 01:35:03;;;;;;;6.37;5.77;;;21.60;99.90;;;;;;5073362;28;20457;-69
2022/06/12 01:37:51;;;;;;;6.90;5.10;;;21.50;99.90;;;;;;5074502;28;20406;-68
2022/06/12 01:40:33;;;;;;;5.93;5.33;;;21.50;99.90;;;;;;5073041;28;20817;-68
2022/06/12 01:43:05;;;;;;;6.40;5.80;;;21.50;99.90;;;;;;5073072;28;20425;-69
2022/06/12 01:46:01;;;;;;;6.40;5.70;;;21.50;99.90;;;;;;5073139;28;20445;-70
2022/06/12 01:49:08;;;;;;;5.70;5.10;;;21.40;99.90;;;;;;5063191;28;21057;-69
2022/06/12 01:51:48;;;;;;;7.63;5.93;;;21.40;99.90;;;;;;5072987;28;20477;-69
2022/06/12 01:54:32;;;;;;;6.30;5.70;;;21.40;99.90;;;;;;5073002;28;20913;-70
2022/06/12 01:57:11;;;;;;;5.70;5.03;;;21.40;99.90;;;;;;5074218;28;20930;-69
2022/06/12 01:59:47;;;;;;;6.70;5.20;;;21.40;99.90;;;;;;5072835;28;20446;-69
2022/06/12 02:02:25;;;;;;;5.27;4.77;;;21.40;99.90;;;;;;5073135;28;20440;-69
2022/06/12 02:05:00;;;;;;;5.53;4.93;;;21.40;99.90;;;;;;5072900;28;20452;-71
2022/06/12 02:07:37;;;;;;;5.70;5.13;;;21.30;99.90;;;;;;5072876;28;20474;-70
2022/06/12 02:10:13;;;;;;;5.73;5.20;;;21.30;99.90;;;;;;5072813;28;20502;-69
2022/06/12 02:15:44;;;;;;;4.93;4.40;;;21.30;99.90;;;;;;5074500;28;20484;-69
2022/06/12 02:18:20;;;;;;;5.20;4.60;;;21.20;99.90;;;;;;5072013;28;20445;-70
2022/06/12 02:20:52;;;;;;;5.90;5.27;;;21.20;99.90;;;;;;5072620;28;20460;-69
2022/06/12 02:23:26;;;;;;;5.63;4.70;;;21.20;99.90;;;;;;5072733;28;20421;-70
2022/06/12 02:25:55;;;;;;;6.17;5.40;;;21.10;99.90;;;;;;5074181;28;20483;-69
2022/06/12 02:28:28;;;;;;;5.27;4.77;;;21.10;99.90;;;;;;5072382;28;20968;-69
2022/06/12 02:31:08;;;;;;;4.40;4.00;;;21.10;99.90;;;;;;5072466;28;20473;-70
2022/06/12 02:33:42;;;;;;;5.53;4.67;;;21.10;99.90;;;;;;5072384;28;20448;-69
2022/06/12 02:36:18;;;;;;;4.67;4.27;;;21.00;99.90;;;;;;5072452;28;20460;-69
2022/06/12 02:38:49;;;;;;;13.17;10.20;;;21.00;99.90;;;;;;5073735;28;20887;-70
2022/06/12 02:41:45;;;;;;;10.10;9.03;;;21.00;99.90;;;;;;5072439;28;20965;-69
2022/06/12 02:44:24;;;;;;;8.20;7.33;;;21.00;99.90;;;;;;5072236;28;20955;-69
2022/06/12 02:46:57;;;;;;;9.07;8.17;;;20.90;99.90;;;;;;5072319;28;20748;-69
2022/06/12 02:49:23;;;;;;;15.00;13.17;;;20.90;99.90;;;;;;5073543;28;20448;-69
2022/06/12 02:52:19;;;;;;;8.67;7.80;;;20.90;99.90;;;;;;5073715;28;20472;-69
2022/06/12 02:54:54;;;;;;;6.20;5.57;;;20.90;99.90;;;;;;5072338;28;20457;-69
2022/06/12 02:57:34;;;;;;;5.63;5.13;;;20.90;99.90;;;;;;5072127;28;20478;-70
2022/06/12 03:00:06;;;;;;;5.57;5.03;;;20.90;99.90;;;;;;5072318;28;20441;-69
2022/06/12 03:02:46;;;;;;;6.10;5.50;;;20.90;99.90;;;;;;5072145;28;20457;-69
2022/06/12 03:05:26;;;;;;;5.07;4.67;;;20.90;99.90;;;;;;5072005;28;20481;-69
2022/06/12 03:08:16;;;;;;;5.60;5.10;;;20.90;99.90;;;;;;5072062;28;20434;-70
2022/06/12 03:11:03;;;;;;;4.97;4.57;;;20.90;99.90;;;;;;5071876;28;20455;-69
2022/06/12 03:13:35;;;;;;;4.50;3.90;;;20.90;99.90;;;;;;5071957;28;20436;-70
2022/06/12 03:16:16;;;;;;;4.93;4.53;;;20.90;99.90;;;;;;5071848;28;20425;-69
2022/06/12 03:18:49;;;;;;;5.37;4.53;;;20.90;99.90;;;;;;5073348;28;20439;-70
2022/06/12 03:21:34;;;;;;;4.70;4.20;;;20.90;99.90;;;;;;5073790;28;20906;-69
2022/06/12 03:24:11;;;;;;;5.70;4.80;;;20.90;99.90;;;;;;5071935;28;20442;-69
2022/06/12 03:27:10;;;;;;;5.10;4.60;;;20.90;99.90;;;;;;5071943;28;20437;-70
2022/06/12 03:29:41;;;;;;;4.83;4.37;;;20.90;99.90;;;;;;5048422;28;20953;-69
2022/06/12 03:32:18;;;;;;;5.70;4.50;;;20.90;99.90;;;;;;5075553;28;20804;-69
2022/06/12 03:35:10;;;;;;;6.00;4.40;;;20.90;99.90;;;;;;5076917;28;20453;-70
2022/06/12 03:37:46;;;;;;;5.10;4.63;;;20.90;99.90;;;;;;5075586;28;20776;-69
2022/06/12 03:40:32;;;;;;;4.67;4.20;;;20.90;99.90;;;;;;5075621;28;20449;-69
2022/06/12 03:43:19;;;;;;;4.87;4.37;;;20.90;99.90;;;;;;5075440;28;20782;-69
2022/06/12 03:46:21;;;;;;;5.13;4.73;;;20.90;99.90;;;;;;5075657;28;20513;-69
2022/06/12 03:49:13;;;;;;;5.17;4.33;;;20.90;99.90;;;;;;5075480;28;20490;-69
2022/06/12 03:51:43;;;;;;;5.33;4.23;;;20.90;99.90;;;;;;5076497;28;20530;-69
2022/06/12 03:54:26;;;;;;;5.60;5.00;;;20.80;99.90;;;;;;5075025;28;20424;-69
2022/06/12 04:00:13;;;;;;;5.07;4.50;;;20.90;99.90;;;;;;5076794;28;20440;-69
2022/06/12 04:02:49;;;;;;;5.90;5.10;;;20.80;99.90;;;;;;5075187;28;20934;-69
2022/06/12 04:05:22;;;;;;;6.00;5.40;;;20.80;99.90;;;;;;5074983;28;20456;-69
2022/06/12 04:07:53;;;;;;;4.77;4.33;;;20.80;99.90;;;;;;5075430;28;20449;-69
2022/06/12 04:10:24;;;;;;;5.83;5.23;;;20.80;99.90;;;;;;5075015;28;20535;-69
2022/06/12 04:12:58;;;;;;;8.27;5.60;;;20.80;99.90;;;;;;5074955;28;20833;-70
2022/06/12 04:15:40;;;;;;;6.43;5.10;;;20.80;99.90;;;;;;5074950;28;20460;-69
2022/06/12 04:18:08;;;;;;;5.40;4.90;;;20.70;99.90;;;;;;5076112;28;20412;-71
2022/06/12 04:20:59;;;;;;;6.20;5.50;;;20.70;99.90;;;;;;5074748;28;20453;-69
2022/06/12 04:23:33;;;;;;;5.53;4.07;;;20.70;99.90;;;;;;5074906;28;20458;-70
2022/06/12 04:26:19;;;;;;;5.53;5.03;;;20.70;99.90;;;;;;5074861;28;20437;-69
2022/06/12 04:28:46;;;;;;;7.07;5.40;;;20.70;99.90;;;;;;5068765;28;20436;-69
2022/06/12 04:31:18;;;;;;;5.50;4.60;;;20.70;99.90;;;;;;5075606;28;20603;-70
2022/06/12 04:33:49;;;;;;;6.07;4.50;;;20.80;99.90;;;;;;5074942;28;20910;-69
2022/06/12 04:36:20;;;;;;;7.80;5.50;;;20.80;99.90;;;;;;5074799;28;20426;-69
2022/06/12 04:38:46;;;;;;;5.00;4.60;;;20.80;99.90;;;;;;5074441;28;20418;-69
2022/06/12 04:41:24;;;;;;;7.00;5.20;;;20.80;99.90;;;;;;5074103;28;20785;-70
2022/06/12 04:43:50;;;;;;;5.63;4.60;;;20.80;99.90;;;;;;5074706;28;20184;-69
2022/06/12 04:46:24;;;;;;;5.50;4.83;;;20.80;99.90;;;;;;5074219;28;20483;-69
2022/06/12 04:48:55;;;;;;;5.20;4.70;;;20.80;99.90;;;;;;5074389;28;20210;-69
2022/06/12 04:51:29;;;;;;;6.23;5.17;;;20.80;99.90;;;;;;5074171;28;20480;-69
2022/06/12 04:53:55;;;;;;;5.17;4.67;;;20.90;99.90;;;;;;5074121;28;20453;-70
2022/06/12 04:56:34;;;;;;;11.00;4.57;;;20.90;99.90;;;;;;5073973;28;20445;-69
2022/06/12 04:59:02;;;;;;;3.83;3.53;;;20.90;99.90;;;;;;5074366;28;20771;-70
2022/06/12 05:01:28;;;;;;;5.50;4.87;;;21.00;99.90;;;;;;5074004;28;20428;-69
2022/06/12 05:03:59;;;;;;;4.97;4.47;;;21.00;99.90;;;;;;5073958;28;20532;-70
2022/06/12 05:06:27;;;;;;;5.33;4.67;;;21.10;99.90;;;;;;5074348;28;20792;-69
2022/06/12 05:08:53;;;;;;;4.57;4.17;;;21.10;99.90;;;;;;5073767;28;20457;-70
2022/06/12 05:11:21;;;;;;;4.60;3.90;;;21.10;99.90;;;;;;5074031;28;20545;-69
2022/06/12 05:13:46;;;;;;;5.80;5.10;;;21.20;99.90;;;;;;5073604;28;20429;-69
2022/06/12 05:16:26;;;;;;;4.40;4.00;;;21.20;99.90;;;;;;5073857;28;20418;-69
2022/06/12 05:18:52;;;;;;;3.97;3.57;;;21.20;99.90;;;;;;5073673;28;20215;-69
2022/06/12 05:21:18;;;;;;;5.50;3.50;;;21.30;99.90;;;;;;5074042;28;20486;-69
2022/06/12 05:23:45;;;;;;;5.73;4.07;;;21.30;99.90;;;;;;5073495;28;20537;-70
2022/06/12 05:26:16;;;;;;;4.17;3.77;;;21.30;99.90;;;;;;5075301;28;20576;-69
2022/06/12 05:28:43;;;;;;;9.53;4.10;;;21.40;99.90;;;;;;5073431;28;20426;-70
2022/06/12 05:31:11;;;;;;;5.97;4.43;;;21.40;99.90;;;;;;5074287;28;20509;-69
2022/06/12 05:33:42;;;;;;;3.90;3.57;;;21.50;99.90;;;;;;5073325;28;20414;-69
2022/06/12 05:36:15;;;;;;;3.97;3.67;;;21.50;99.90;;;;;;5072511;28;20551;-69
2022/06/12 05:38:46;;;;;;;4.37;3.47;;;21.60;99.90;;;;;;5073201;28;20444;-70
2022/06/12 05:41:12;;;;;;;3.73;3.30;;;21.70;99.90;;;;;;5073000;28;20426;-69
2022/06/12 05:43:40;;;;;;;4.20;3.80;;;21.70;99.90;;;;;;5073208;28;20464;-69
2022/06/12 05:46:13;;;;;;;5.20;3.67;;;21.70;99.90;;;;;;5073141;28;20417;-69
2022/06/12 05:48:40;;;;;;;4.07;3.67;;;21.80;99.90;;;;;;5073143;28;20436;-69
2022/06/12 05:51:07;;;;;;;8.53;3.43;;;21.80;99.90;;;;;;5073296;28;20466;-69
2022/06/12 05:53:38;;;;;;;3.87;3.57;;;21.90;99.90;;;;;;5072076;28;20441;-69
2022/06/12 05:56:17;;;;;;;4.10;3.80;;;21.90;99.90;;;;;;5072953;28;21008;-69
2022/06/12 05:58:43;;;;;;;7.80;3.60;;;22.00;99.90;;;;;;5073163;28;20433;-69
2022/06/12 06:01:16;;;;;;;3.87;3.57;;;22.00;99.90;;;;;;5073103;28;20825;-70
2022/06/12 06:03:42;;;;;;;3.80;3.50;;;22.10;99.90;;;;;;5072884;28;20422;-69
2022/06/12 06:06:17;;;;;;;3.27;2.97;;;22.10;99.90;;;;;;5074135;28;20410;-70
2022/06/12 06:08:43;;;;;;;4.13;3.50;;;22.20;99.90;;;;;;5073316;28;20173;-69
2022/06/12 06:11:10;;;;;;;4.80;3.20;;;22.30;99.90;;;;;;5072592;28;20472;-69
2022/06/12 06:13:36;;;;;;;4.20;3.80;;;22.30;99.90;;;;;;5072801;28;20422;-69
2022/06/12 06:16:02;;;;;;;3.33;3.03;;;22.40;99.90;;;;;;5073038;28;20426;-69
2022/06/12 06:18:34;;;;;;;3.50;3.20;;;22.40;99.90;;;;;;5073967;28;20485;-70
2022/06/12 06:21:03;;;;;;;3.77;3.30;;;22.50;99.90;;;;;;5072499;28;20431;-71
2022/06/12 06:23:36;;;;;;;3.47;3.17;;;22.60;99.90;;;;;;5072478;28;20738;-69
2022/06/12 06:26:02;;;;;;;4.00;3.60;;;22.60;99.90;;;;;;5072364;28;20511;-69
2022/06/12 06:28:28;;;;;;;3.60;3.30;;;22.70;99.90;;;;;;5074127;28;20431;-70
2022/06/12 06:30:55;;;;;;;3.33;3.03;;;22.70;99.90;;;;;;5072143;28;20476;-69
2022/06/12 06:33:31;;;;;;;5.57;3.43;;;22.80;99.90;;;;;;5072325;28;20861;-69
2022/06/12 06:35:59;;;;;;;3.07;2.87;;;22.80;99.90;;;;;;5072245;28;20795;-69
2022/06/12 06:38:26;;;;;;;3.50;3.07;;;22.90;99.90;;;;;;5072267;28;20564;-70
2022/06/12 06:40:55;;;;;;;3.00;2.80;;;22.90;99.90;;;;;;5072498;28;20453;-69
2022/06/12 06:43:22;;;;;;;6.30;3.67;;;22.90;99.90;;;;;;5072890;28;20437;-69
2022/06/12 06:48:36;;;;;;;4.40;3.10;;;23.00;99.90;;;;;;5072800;28;20408;-70
2022/06/12 06:51:04;;;;;;;3.90;3.60;;;23.10;99.90;;;;;;5070630;28;20459;-70
2022/06/12 06:53:30;;;;;;;3.80;3.50;;;23.10;99.90;;;;;;5071925;28;20533;-69
2022/06/12 06:55:56;;;;;;;3.77;3.37;;;23.10;99.90;;;;;;5071110;28;20533;-68
2022/06/12 06:58:31;;;;;;;3.43;2.87;;;23.20;99.90;;;;;;5071940;28;20185;-69
2022/06/12 07:00:58;;;;;;;4.07;3.53;;;23.20;99.90;;;;;;5072276;28;20656;-69
2022/06/12 07:03:26;;;;;;;5.73;3.50;;;23.30;99.90;;;;;;5072649;28;20423;-69
2022/06/12 07:05:54;;;;;;;3.57;3.27;;;23.30;99.90;;;;;;5075833;28;20543;-69
2022/06/12 07:08:21;;;;;;;3.80;3.10;;;23.40;99.90;;;;;;5076157;28;20416;-69
2022/06/12 07:10:54;;;;;;;3.40;3.00;;;23.40;99.90;;;;;;5056790;28;20443;-69
2022/06/12 07:13:20;;;;;;;4.10;3.10;;;23.50;99.90;;;;;;5049270;28;20952;-69
2022/06/12 07:15:46;;;;;;;3.00;2.80;;;23.50;99.90;;;;;;5056177;28;20452;-69
2022/06/12 07:18:12;;;;;;;3.60;3.27;;;23.60;99.90;;;;;;5049944;28;21005;-68
2022/06/12 07:20:46;;;;;;;4.67;3.20;;;23.60;99.90;;;;;;5047715;28;21011;-69
2022/06/12 07:23:17;;;;;;;3.00;2.80;;;23.70;99.90;;;;;;5041304;28;20468;-70
2022/06/12 07:25:51;;;;;;;6.83;3.47;;;23.70;99.90;;;;;;5042971;28;20471;-69
2022/06/12 07:28:20;;;;;;;3.07;2.87;;;23.80;99.90;;;;;;5049945;28;20418;-69
2022/06/12 07:30:46;;;;;;;3.73;3.40;;;23.80;99.90;;;;;;5052356;28;20581;-69
2022/06/12 07:33:16;;;;;;;5.20;3.00;;;23.80;99.90;;;;;;5052701;28;20775;-69
2022/06/12 07:35:48;;;;;;;7.30;3.27;;;23.90;99.90;;;;;;5048052;28;20506;-69
2022/06/12 07:38:19;;;;;;;3.77;3.40;;;23.90;99.90;;;;;;5047236;28;20441;-69
2022/06/12 07:40:49;;;;;;;2.80;2.50;;;24.00;99.90;;;;;;5036394;28;20484;-69
2022/06/12 07:43:17;;;;;;;6.57;3.30;;;24.00;99.90;;;;;;5075600;28;20921;-69
2022/06/12 07:46:03;;;;;;;2.90;2.70;;;24.00;99.90;;;;;;5076611;28;20790;-70
2022/06/12 07:48:33;;;;;;;4.43;2.90;;;24.10;99.90;;;;;;5075369;28;20793;-68
2022/06/12 07:51:05;;;;;;;3.33;3.03;;;24.10;99.90;;;;;;5075355;28;20431;-69
2022/06/12 07:53:31;;;;;;;3.90;2.83;;;24.10;99.90;;;;;;5056481;28;20492;-69
2022/06/12 07:56:00;;;;;;;6.03;2.90;;;24.20;99.90;;;;;;5055603;28;20992;-69
2022/06/12 07:58:36;;;;;;;3.00;2.70;;;24.20;99.90;;;;;;5055572;28;20920;-70
2022/06/12 08:01:07;;;;;;;2.87;2.60;;;24.30;99.90;;;;;;5055391;28;20432;-70
2022/06/12 08:03:39;;;;;;;3.50;3.20;;;24.30;99.90;;;;;;5055093;28;20412;-69
2022/06/12 08:06:05;;;;;;;3.60;3.00;;;24.40;99.90;;;;;;5055012;28;20430;-69
2022/06/12 08:08:31;;;;;;;3.30;3.00;;;24.40;99.90;;;;;;5055197;28;20807;-69
2022/06/12 08:11:03;;;;;;;3.77;3.47;;;24.50;99.90;;;;;;5054736;28;20200;-69
2022/06/12 08:13:34;;;;;;;3.13;2.83;;;24.60;99.90;;;;;;5055094;28;20185;-69
2022/06/12 08:16:00;;;;;;;3.23;2.93;;;24.60;99.90;;;;;;5054026;28;20524;-69
2022/06/12 08:18:29;;;;;;;3.30;3.07;;;24.70;99.90;;;;;;5054711;28;20825;-68
2022/06/12 08:21:04;;;;;;;4.33;3.20;;;24.70;99.90;;;;;;5054751;28;20502;-70
2022/06/12 08:23:43;;;;;;;3.17;2.87;;;24.70;99.90;;;;;;5056740;28;20396;-69
2022/06/12 08:26:12;;;;;;;3.23;2.90;;;24.80;99.90;;;;;;5054871;28;20433;-69
2022/06/12 08:28:51;;;;;;;3.07;2.87;;;24.90;99.90;;;;;;5055014;28;21019;-69
2022/06/12 08:31:25;;;;;;;3.37;2.87;;;24.90;99.90;;;;;;5054487;28;20587;-69
2022/06/12 08:33:59;;;;;;;2.43;2.23;;;24.90;99.90;;;;;;5054640;28;20426;-69
2022/06/12 08:36:26;;;;;;;3.23;2.90;;;25.00;99.90;;;;;;5056739;28;20500;-69
2022/06/12 08:38:52;;;;;;;3.70;2.83;;;25.00;99.90;;;;;;5054446;28;20800;-69
2022/06/12 08:41:28;;;;;;;3.33;3.03;;;25.10;99.90;;;;;;5061023;28;20516;-69
2022/06/12 08:44:23;;;;;;;3.93;3.00;;;25.20;99.90;;;;;;5074413;28;20201;-69
2022/06/12 08:46:58;;;;;;;3.20;2.50;;;25.20;99.90;;;;;;5074327;28;20433;-69
2022/06/12 08:49:43;;;;;;;2.90;2.70;;;25.30;99.90;;;;;;5057208;28;21274;-69
2022/06/12 08:52:18;;;;;;;3.70;2.80;;;25.30;99.90;;;;;;5042196;28;20463;-69
2022/06/12 08:54:58;;;;;;;2.70;2.50;;;25.30;99.90;;;;;;5045268;28;20486;-69
2022/06/12 08:57:44;;;;;;;2.90;2.60;;;25.40;99.90;;;;;;5052703;28;20427;-69
2022/06/12 09:00:21;;;;;;;3.10;2.77;;;25.50;99.90;;;;;;5054112;28;20447;-70
2022/06/12 09:02:49;;;;;;;2.90;2.70;;;25.50;99.90;;;;;;5054102;28;20437;-69
2022/06/12 09:05:28;;;;;;;2.70;2.50;;;25.50;99.90;;;;;;5053585;28;20493;-69
2022/06/12 09:08:28;;;;;;;2.53;2.33;;;25.60;99.90;;;;;;5054410;28;20439;-69
2022/06/12 09:11:17;;;;;;;2.90;2.60;;;25.70;99.90;;;;;;5047080;28;20821;-69
2022/06/12 09:13:56;;;;;;;3.20;2.90;;;25.80;99.90;;;;;;5053697;28;20411;-69
2022/06/12 09:16:52;;;;;;;5.73;2.70;;;25.90;99.90;;;;;;5054346;28;20505;-69
2022/06/12 09:19:39;;;;;;;3.20;2.77;;;26.00;99.90;;;;;;5053625;28;20537;-69
2022/06/12 09:22:23;;;;;;;5.37;2.77;;;26.10;99.90;;;;;;5054090;28;20849;-69
2022/06/12 09:24:53;;;;;;;3.30;2.80;;;26.10;99.90;;;;;;5053542;28;20441;-69
2022/06/12 09:27:27;;;;;;;2.37;2.20;;;26.20;99.90;;;;;;5053830;28;20418;-69
2022/06/12 09:30:02;;;;;;;3.27;2.97;;;26.20;99.90;;;;;;5053349;28;20505;-69
2022/06/12 09:32:29;;;;;;;2.60;2.40;;;26.30;99.90;;;;;;5053534;28;20466;-69
2022/06/12 09:35:05;;;;;;;3.37;3.00;;;26.40;99.90;;;;;;5053209;28;20473;-69
2022/06/12 09:41:00;;;;;;;3.20;2.67;;;26.50;99.90;;;;;;5054497;28;20487;-69
2022/06/12 09:43:56;;;;;;;3.50;2.80;;;26.50;99.90;;;;;;5033106;28;20447;-69
2022/06/12 09:46:42;;;;;;;2.67;2.37;;;26.60;99.90;;;;;;5033512;28;20427;-69
2022/06/12 09:49:29;;;;;;;4.90;2.97;;;26.70;99.90;;;;;;5049512;28;20679;-69
2022/06/12 09:52:20;;;;;;;9.17;3.13;;;26.70;99.90;;;;;;5034299;28;20470;-70
2022/06/12 09:55:28;;;;;;;10.13;3.40;;;26.70;99.90;;;;;;5033052;28;20451;-69
2022/06/12 09:58:01;;;;;;;2.37;2.17;;;26.80;99.90;;;;;;5049741;28;20426;-69
2022/06/12 10:00:40;;;;;;;3.07;2.80;;;26.80;99.90;;;;;;5034085;28;20475;-69
2022/06/12 10:03:33;;;;;;;3.07;2.87;;;26.90;99.90;;;;;;5033035;28;20432;-69
2022/06/12 10:06:24;;;;;;;3.60;3.30;;;26.80;99.90;;;;;;5049837;28;20450;-69
2022/06/12 10:09:17;;;;;;;2.97;2.70;;;26.90;99.90;;;;;;5049317;28;20493;-69
2022/06/12 10:12:00;;;;;;;3.23;2.93;;;26.90;99.90;;;;;;5032881;28;20837;-69
2022/06/12 10:14:40;;;;;;;5.40;2.50;;;27.00;99.90;;;;;;5033036;28;20451;-69
2022/06/12 10:17:30;;;;;;;3.07;2.87;;;27.00;99.90;;;;;;5031570;28;20785;-69
2022/06/12 10:20:10;;;;;;;3.30;3.00;;;27.00;99.90;;;;;;5033712;28;20991;-69
2022/06/12 10:22:45;;;;;;;4.40;3.13;;;27.10;99.90;;;;;;5032777;28;20457;-70
2022/06/12 10:25:21;;;;;;;3.13;2.87;;;27.10;99.90;;;;;;5032593;28;20454;-69
2022/06/12 10:28:05;;;;;;;2.67;2.47;;;27.10;99.90;;;;;;5033310;28;20921;-69
2022/06/12 10:30:45;;;;;;;3.00;2.70;;;27.10;99.90;;;;;;5032356;28;21045;-69
2022/06/12 10:33:42;;;;;;;4.87;2.57;;;27.20;99.90;;;;;;5032750;28;20998;-69
2022/06/12 10:36:39;;;;;;;3.17;2.87;;;27.10;99.90;;;;;;5020868;28;20451;-69
2022/06/12 10:39:15;;;;;;;3.57;3.27;;;27.10;99.90;;;;;;5029665;28;20454;-69
2022/06/12 10:41:56;;;;;;;3.20;2.90;;;27.10;99.90;;;;;;5046463;28;20418;-69
2022/06/12 10:44:57;;;;;;;3.10;2.70;;;27.10;99.90;;;;;;5070598;28;20430;-69
2022/06/12 10:47:28;;;;;;;5.70;3.20;;;27.10;99.90;;;;;;5069629;28;20471;-69
2022/06/12 10:50:06;;;;;;;2.73;2.50;;;27.10;99.90;;;;;;5070091;28;20453;-69
2022/06/12 10:52:33;;;;;;;2.73;2.53;;;27.10;99.90;;;;;;5070211;28;20560;-69
2022/06/12 10:55:01;;;;;;;2.80;2.60;;;27.10;99.90;;;;;;5071092;28;20449;-69
2022/06/12 10:57:44;;;;;;;3.30;3.00;;;27.10;99.90;;;;;;5072297;28;20959;-69
2022/06/12 11:00:26;;;;;;;3.33;3.10;;;27.10;99.90;;;;;;5072275;28;20465;-69
2022/06/12 11:03:10;;;;;;;2.97;2.73;;;27.10;99.90;;;;;;5072181;28;20430;-69
2022/06/12 11:06:01;;;;;;;3.30;3.10;;;27.20;99.90;;;;;;5072564;28;20450;-69
2022/06/12 11:08:51;;;;;;;2.83;2.57;;;27.20;99.90;;;;;;5072261;28;20507;-69
2022/06/12 11:11:26;;;;;;;3.20;3.00;;;27.20;99.90;;;;;;5072344;28;20480;-68
2022/06/12 11:14:03;;;;;;;5.03;2.93;;;27.20;99.90;;;;;;5072194;28;20479;-69
2022/06/12 11:16:54;;;;;;;3.80;3.50;;;27.10;99.90;;;;;;5072182;28;20489;-70
2022/06/12 11:19:28;;;;;;;3.60;3.07;;;27.20;99.90;;;;;;5072093;28;20519;-71
2022/06/12 11:22:30;;;;;;;3.73;3.23;;;27.20;99.90;;;;;;5072337;28;20421;-70
2022/06/12 11:25:22;;;;;;;4.90;3.00;;;27.20;99.90;;;;;;5072186;28;20437;-69
2022/06/12 11:28:16;;;;;;;3.27;2.97;;;27.20;99.90;;;;;;5071872;28;20422;-69
2022/06/12 11:31:09;;;;;;;2.90;2.70;;;27.30;99.90;;;;;;5071330;28;20477;-69
2022/06/12 11:34:02;;;;;;;3.43;3.13;;;27.30;99.90;;;;;;5072293;28;20449;-69
2022/06/12 11:37:06;;;;;;;4.00;3.60;;;27.30;99.90;;;;;;5071644;28;20429;-70
2022/06/12 11:39:55;;;;;;;2.70;2.50;;;27.30;99.90;;;;;;5071726;28;20446;-69
2022/06/12 11:42:53;;;;;;;3.17;2.90;;;27.30;99.90;;;;;;5071727;28;20934;-71
2022/06/12 11:45:44;;;;;;;3.20;2.90;;;27.40;99.90;;;;;;5071617;28;20458;-69
2022/06/12 11:48:21;;;;;;;4.47;3.50;;;27.40;99.90;;;;;;5071691;28;21007;-69
2022/06/12 11:51:13;;;;;;;4.20;3.43;;;27.40;99.90;;;;;;5073013;28;20864;-71
2022/06/12 11:53:57;;;;;;;3.27;3.00;;;27.40;99.90;;;;;;5075361;28;20429;-69
2022/06/12 11:56:45;;;;;;;2.80;2.60;;;27.40;99.90;;;;;;5075511;28;20429;-69
2022/06/12 11:59:49;;;;;;;4.00;3.60;;;27.50;99.90;;;;;;5075211;28;20448;-69
2022/06/12 12:02:29;;;;;;;3.50;3.20;;;27.50;99.90;;;;;;5018204;28;20530;-69
2022/06/12 12:05:25;;;;;;;4.53;3.43;;;27.50;99.90;;;;;;5068635;28;20438;-69
2022/06/12 12:08:10;;;;;;;3.40;3.10;;;27.50;99.90;;;;;;5075317;28;20422;-69
2022/06/12 12:10:39;;;;;;;3.10;2.90;;;27.50;99.90;;;;;;5075107;28;20442;-69
2022/06/12 12:13:10;;;;;;;3.37;3.13;;;27.60;99.90;;;;;;5075366;28;20588;-69
2022/06/12 12:15:55;;;;;;;4.23;3.60;;;27.60;99.90;;;;;;5075024;28;20428;-69
2022/06/12 12:18:49;;;;;;;3.30;3.10;;;27.70;99.90;;;;;;5074812;28;20441;-69
2022/06/12 12:21:53;;;;;;;2.93;2.73;;;27.70;99.90;;;;;;5074963;28;20934;-69
2022/06/12 12:24:25;;;;;;;3.67;3.37;;;27.80;99.90;;;;;;5017108;28;20831;-69
2022/06/12 12:26:56;;;;;;;6.50;3.00;;;27.80;99.90;;;;;;5066250;28;20422;-69
2022/06/12 12:29:27;;;;;;;3.07;2.87;;;27.80;99.90;;;;;;5074703;28;20487;-70
2022/06/12 12:31:54;;;;;;;3.23;2.93;;;27.80;99.90;;;;;;5055280;28;20505;-70
2022/06/12 12:34:23;;;;;;;3.67;3.40;;;27.80;99.90;;;;;;5054586;28;20423;-69
2022/06/12 12:42:38;;;;;;;4.30;3.90;;;27.90;99.90;;;;;;5056065;28;20472;-70
2022/06/12 12:45:22;;;;;;;3.80;3.40;;;28.00;99.90;;;;;;5054530;28;20932;-70
2022/06/12 12:48:09;;;;;;;3.17;2.93;;;28.00;99.90;;;;;;5054707;28;20894;-70
2022/06/12 12:51:00;;;;;;;4.00;3.33;;;28.10;99.90;;;;;;5054611;28;20450;-70
2022/06/12 12:53:31;;;;;;;3.40;3.10;;;28.10;99.90;;;;;;5054426;28;20932;-70
2022/06/12 12:56:06;;;;;;;3.27;2.97;;;28.10;99.90;;;;;;5054442;28;20955;-70
2022/06/12 12:58:41;;;;;;;3.27;2.97;;;28.10;99.90;;;;;;5054507;28;20424;-70
2022/06/12 13:01:21;;;;;;;3.73;3.30;;;28.10;99.90;;;;;;5052771;28;20513;-69
2022/06/12 13:03:50;;;;;;;3.10;2.80;;;28.10;99.90;;;;;;5054153;28;21023;-71
2022/06/12 13:06:43;;;;;;;3.30;3.00;;;28.10;99.90;;;;;;5054372;28;20539;-70
2022/06/12 13:09:19;;;;;;;6.33;3.93;;;28.20;99.60;;;;;;5054060;28;20978;-70
2022/06/12 13:11:46;;;;;;;3.80;3.33;;;28.20;99.90;;;;;;5054007;28;20993;-70
2022/06/12 13:14:39;;;;;;;3.37;3.07;;;28.20;99.60;;;;;;5053719;28;20479;-70
2022/06/12 13:17:43;;;;;;;4.00;3.03;;;28.20;98.80;;;;;;5053373;28;20917;-70
2022/06/12 13:20:20;;;;;;;4.33;3.93;;;28.20;98.70;;;;;;5051654;28;20442;-70
2022/06/12 13:23:08;;;;;;;5.43;3.87;;;28.20;98.70;;;;;;5051606;28;20412;-69
2022/06/12 13:25:40;;;;;;;3.50;3.20;;;28.30;99.60;;;;;;5050967;28;20981;-69
2022/06/12 13:28:22;;;;;;;3.63;3.33;;;28.20;99.10;;;;;;5051519;28;20466;-70
2022/06/12 13:30:48;;;;;;;3.17;2.87;;;28.20;99.70;;;;;;5062542;28;20477;-69
2022/06/12 13:33:23;;;;;;;4.30;3.00;;;28.20;99.50;;;;;;5073034;28;20504;-70
2022/06/12 13:35:54;;;;;;;5.03;3.40;;;28.20;98.80;;;;;;5073201;28;20458;-70
2022/06/12 13:38:32;;;;;;;5.10;3.40;;;28.30;98.50;;;;;;5073051;28;20422;-70
2022/06/12 13:41:04;;;;;;;4.77;3.83;;;28.30;98.60;;;;;;5073083;28;20931;-70
2022/06/12 13:43:51;;;;;;;3.37;3.07;;;28.30;98.20;;;;;;5073225;28;20410;-70
2022/06/12 13:46:26;;;;;;;3.70;3.40;;;28.30;98.50;;;;;;5072044;28;20499;-70
2022/06/12 13:48:53;;;;;;;3.80;3.40;;;28.30;98.40;;;;;;5071200;28;20441;-70
2022/06/12 13:52:01;;;;;;;3.60;3.30;;;28.30;98.90;;;;;;5070827;28;20486;-70
2022/06/12 13:54:38;;;;;;;3.20;2.90;;;28.30;98.90;;;;;;5058498;28;20816;-70